AirNav   ProFlight Series 2 Aviation Headset
 
 405 users online  

8VA4 Lotus International Airport
Buckinham, Virginia, USA

GOING TO BUCKINHAM?


FAA INFORMATION EFFECTIVE 08 OCTOBER 2020

Location

FAA Identifier: 8VA4
Lat/Long: 37-40-22.5150N 078-42-12.0530W
37-40.375250N 078-42.200883W
37.6729208,-78.7033481
(estimated)
Elevation: 340 ft. / 103.6 m (surveyed)
Variation: 08W (1985)
From city: 10 miles NW of BUCKINHAM, VA
Time zone: UTC -4 (UTC -5 during Standard Time)
Zip code: 23921

Airport Operations

Airport use: Private use. Permission required prior to landing
Activation date: 02/1982
Control tower: no
ARTCC: WASHINGTON CENTER
FSS: LEESBURG FLIGHT SERVICE STATION
Attendance: DAYLIGHT HOURS
Wind indicator: yes
Segmented circle: no
Lights: FOR LIRL RWY 08/26 CALL 434-969-3121.

Airport Communications

UNICOM: 122.7

Nearby radio navigation aids

VOR radial/distance  VOR name  Freq  Var
MOLr131/23.5MONTEBELLO VOR/DME115.3005W
GVEr238/33.1GORDONSVILLE VORTAC115.6006W
LYHr050/35.7LYNCHBURG VOR/DME109.2005W

 
NDB name  Hdg/Dist  Freq  Var  ID
FARMVILLE336/23.036709WFVX ..-. ...- -..-

Airport Services

Runway Information

Runway 9/27

Dimensions: 2709 x 100 ft. / 826 x 30 m
Surface: turf
Runway edge lights: low intensity
RUNWAY 9  RUNWAY 27
Traffic pattern: leftright
Obstructions: 50 ft. trees, 500 ft. from runway200 ft. hill, 4000 ft. from runway

Airport Ownership and Management from official FAA records

Ownership: Privately-owned
Owner: YOGAVILLE
108 YOGAVILLE WAY
BUCKINGHAM, VA 23921
Phone (434) 969-3121
SATCHIDANANDA ASHRAM-YOGAVILLE-VIRGINIA
Manager: ERNIE MOORE
108 YOGAVILLE WAY
BUCKINGHAM, VA 23921
Phone (434) 969-3121

Additional Remarks

OWNER DESIRES CHARTG
FOR CD CTC POTOMAC APCH AT 866-640-4124.

Instrument Procedures

There are no published instrument procedures at 8VA4.

Some nearby airports with instrument procedures:

KFVX - Farmville Regional Airport (23 nm SE)
W24 - Falwell Airport (27 nm SW)
W13 - Eagle's Nest Airport (27 nm NW)
KCHO - Charlottesville-Albemarle Airport (30 nm NE)
KLYH - Lynchburg Regional Airport/Preston Glenn Field (32 nm SW)
 
Loc | Ops | Rwys | IFR | FBO | Links
Com | Nav | Svcs | Stats | Notes
Area around 8VA4 (Lotus International Airport)
 
Road maps at: MapQuest Bing Google
 
Aerial photo
No photo
 
Sectional chart

 
Airport distance calculator
Flying to Lotus International Airport? Find the distance to fly.

From to 8VA4

Sunrise and sunset
Times for 20-Oct-2020
 Local
(UTC-4)
 Zulu
(UTC)
Morning civil twilight07:0311:03
Sunrise07:3011:30
Sunset18:2922:29
Evening civil twilight18:5622:56

Current date and time
Zulu (UTC)  20-Oct-2020 06:59:56
Local (UTC-4)  20-Oct-2020 02:59:56
 
METAR
KFVX 
24nm SE 
200635Z AUTO 00000KT 1/2SM FG BKN002 OVC007 10/10 A3022 RMK AO2 T00960095
KW13 
27nm NW 
200655Z AUTO 12004KT 10SM CLR 09/09 A3024 RMK AO1 T00930093
KCHO 
30nm NE 
200653Z AUTO 32003KT 7SM SCT001 12/11 A3023 RMK AO2 SLP232 T01220111
KLYH 
32nm SW 
200654Z AUTO 00000KT 1 1/2SM BR FEW003 10/09 A3023 RMK AO2 VIS 3/4V4 SLP233 T01000094
K0V4 
35nm SW 
200655Z AUTO 00000KT 2 1/2SM SCT003 OVC008 10/10 A3022 RMK AO1 T00970096
KSHD 
37nm N 
200635Z AUTO 17003KT 10SM CLR 10/10 A3025 RMK AO2 T01000096
KGVE 
39nm NE 
200635Z AUTO 00000KT 3SM BR CLR 10/10 A3022 RMK AO1 T00950095
KLKU 
41nm NE 
200655Z AUTO 19003KT 7SM CLR 11/ A3026 RMK AO2 T0107////
KW81 
41nm SE 
200655Z AUTO 00000KT 3SM CLR A3022 RMK AO1
KVBW 
43nm N 
200655Z AUTO 00000KT 7SM CLR 09/09 A3023 RMK AO1 T00930093
TAF
KCHO 
30nm NE 
200537Z 2006/2106 VRB03KT 5SM BR SKC FM200700 VRB03KT 3SM BR SCT015 FM201400 VRB03KT P6SM SCT035
KLYH 
32nm SW 
200539Z 2006/2106 00000KT 1SM BR OVC002 TEMPO 2006/2008 1/4SM FG OVC002 FM200800 VRB02KT 1/4SM FG OVC001 FM201200 VRB03KT 2SM BR BKN004 FM201300 VRB03KT 6SM BR SCT010 FM201400 21004KT P6SM SCT040
NOTAMs
Click for the latest NOTAMs
NOTAMs are issued by the DoD/FAA and will open in a separate window not controlled by AirNav.

 

 
 

Would you like to see your business listed on this page?

 If your business provides an interesting product or service to pilots, flight crews, aircraft, or users of the Lotus International Airport, you should consider listing it here.  To start the listing process, click on the button below
 
Add a business
 

Other Pages about Lotus International Airport

Update a link
 
Copyright © AirNav, LLC. All rights reserved. Privacy Policy  Contact